createdAt,value
2018-06-16T00:00:04.611Z,12.00
2018-06-16T00:02:32.414Z,11.45
2018-06-16T00:05:00.564Z,12.20
2018-06-16T00:07:28.483Z,12.70
2018-06-16T00:09:56.526Z,12.00
2018-06-16T00:12:24.589Z,11.88
2018-06-16T00:14:52.666Z,12.50
2018-06-16T00:17:20.747Z,13.60
2018-06-16T00:19:48.824Z,13.77
2018-06-16T00:22:16.896Z,13.80
2018-06-16T00:24:45.005Z,13.07
2018-06-16T00:27:13.039Z,12.63
2018-06-16T00:29:41.223Z,13.57
2018-06-16T00:32:09.400Z,13.93
2018-06-16T00:34:37.451Z,13.30
2018-06-16T00:37:05.755Z,14.47
2018-06-16T00:39:33.815Z,15.85
2018-06-16T00:42:01.869Z,14.13
2018-06-16T00:44:30.044Z,13.10
2018-06-16T00:46:58.143Z,13.20
2018-06-16T00:49:26.432Z,13.70
2018-06-16T00:51:54.474Z,12.40
2018-06-16T00:54:22.564Z,12.50
2018-06-16T00:57:01.724Z,12.80
2018-06-16T00:59:30.411Z,12.30
2018-06-16T01:01:58.479Z,12.80
2018-06-16T01:04:26.603Z,13.80
2018-06-16T01:06:54.645Z,12.90
2018-06-16T01:09:22.855Z,13.90
2018-06-16T01:11:50.777Z,13.98
2018-06-16T01:14:18.904Z,15.20
2018-06-16T01:16:47.268Z,15.80
2018-06-16T01:19:15.363Z,14.00
2018-06-16T01:21:43.715Z,14.38
2018-06-16T01:24:11.705Z,12.95
2018-06-16T01:26:39.831Z,13.45
2018-06-16T01:29:07.954Z,14.28
2018-06-16T01:31:35.739Z,15.58
2018-06-16T01:34:04.227Z,15.50
2018-06-16T01:36:32.373Z,15.95
2018-06-16T01:39:00.166Z,14.90
2018-06-16T01:41:28.047Z,15.58
2018-06-16T01:43:56.187Z,16.40
2018-06-16T01:46:24.085Z,14.25
2018-06-16T01:48:52.320Z,16.37
2018-06-16T01:51:20.342Z,15.83
2018-06-16T01:53:48.515Z,16.35
2018-06-16T01:56:16.588Z,16.80
2018-06-16T01:58:44.651Z,18.67
2018-06-16T02:01:12.812Z,18.80
2018-06-16T02:03:40.924Z,18.37
2018-06-16T02:06:09.047Z,18.75
2018-06-16T02:08:36.832Z,17.57
2018-06-16T02:11:04.923Z,18.07
2018-06-16T02:13:32.957Z,18.67
2018-06-16T02:16:00.746Z,18.90
2018-06-16T02:18:29.010Z,17.65
2018-06-16T02:20:57.124Z,18.35
2018-06-16T02:23:25.180Z,19.33
2018-06-16T02:25:53.356Z,18.02
2018-06-16T02:28:21.455Z,16.42
2018-06-16T02:30:49.585Z,17.90
2018-06-16T02:33:17.793Z,16.25
2018-06-16T02:35:45.826Z,15.20
2018-06-16T02:38:13.737Z,16.70
2018-06-16T02:40:41.768Z,16.43
2018-06-16T02:43:09.666Z,17.37
2018-06-16T02:45:38.144Z,18.12
2018-06-16T02:48:06.331Z,17.10
2018-06-16T02:50:34.507Z,16.82
2018-06-16T02:53:02.466Z,17.90
2018-06-16T02:55:30.520Z,17.80
2018-06-16T02:57:58.591Z,17.52
2018-06-16T03:00:26.363Z,17.52
2018-06-16T03:02:54.668Z,17.33
2018-06-16T03:05:22.720Z,16.77
2018-06-16T03:07:50.819Z,17.73
2018-06-16T03:10:19.067Z,17.00
2018-06-16T03:12:47.246Z,18.12
2018-06-16T03:15:15.493Z,16.93
2018-06-16T03:17:43.616Z,16.65
2018-06-16T03:20:11.683Z,14.80
2018-06-16T03:22:39.868Z,15.10
2018-06-16T03:25:07.904Z,16.97
2018-06-16T03:27:36.016Z,15.50
2018-06-16T03:30:04.272Z,16.50
2018-06-16T03:32:32.335Z,16.23
2018-06-16T03:35:00.340Z,16.85
2018-06-16T03:37:28.400Z,17.00
2018-06-16T03:39:56.459Z,18.75
2018-06-16T03:42:24.590Z,19.67
2018-06-16T03:44:52.700Z,17.30
2018-06-16T03:47:20.930Z,16.32
2018-06-16T03:49:48.985Z,16.13
2018-06-16T03:52:17.139Z,18.15
2018-06-16T03:54:45.350Z,17.17
2018-06-16T03:57:13.358Z,15.32
2018-06-16T03:59:41.172Z,15.13
2018-06-16T04:02:09.359Z,15.15
2018-06-16T04:04:37.389Z,14.93
2018-06-16T04:07:05.474Z,15.75
2018-06-16T04:09:33.532Z,15.98
2018-06-16T04:12:08.508Z,14.13
2018-06-16T04:14:36.563Z,13.28
2018-06-16T04:17:11.190Z,13.90
2018-06-16T04:19:39.288Z,15.03
2018-06-16T04:22:07.416Z,14.03
2018-06-16T04:24:35.499Z,14.00
2018-06-16T04:27:03.723Z,15.00
2018-06-16T04:29:31.713Z,14.90
2018-06-16T04:31:59.743Z,15.88
2018-06-16T04:34:27.779Z,15.70
2018-06-16T04:36:55.569Z,15.75
2018-06-16T04:39:23.808Z,15.90
2018-06-16T04:41:51.839Z,15.00
2018-06-16T04:44:19.886Z,15.30
2018-06-16T04:46:47.947Z,14.40
2018-06-16T04:49:16.039Z,14.20
2018-06-16T04:51:44.118Z,13.58
2018-06-16T04:54:12.191Z,12.60
2018-06-16T04:56:40.341Z,13.95
2018-06-16T04:59:08.223Z,13.95
2018-06-16T05:01:36.288Z,13.72
2018-06-16T05:04:04.475Z,14.20
2018-06-16T05:06:32.627Z,13.78
2018-06-16T05:09:00.424Z,13.10
2018-06-16T05:11:28.486Z,13.60
2018-06-16T05:13:56.579Z,14.03
2018-06-16T05:16:24.764Z,14.70
2018-06-16T05:18:52.795Z,14.43
2018-06-16T05:21:21.090Z,14.18
2018-06-16T05:23:49.158Z,13.48
2018-06-16T05:26:17.235Z,13.90
2018-06-16T05:28:45.287Z,13.68
2018-06-16T05:31:13.270Z,13.73
2018-06-16T05:33:41.330Z,13.55
2018-06-16T05:36:09.121Z,13.95
2018-06-16T05:38:37.179Z,13.62
2018-06-16T05:41:05.136Z,14.15
2018-06-16T05:43:33.030Z,14.05
2018-06-16T05:46:01.195Z,14.03
2018-06-16T05:48:29.278Z,14.35
2018-06-16T05:50:57.332Z,14.00
2018-06-16T05:53:25.370Z,13.78
2018-06-16T05:55:53.376Z,13.88
2018-06-16T05:58:21.267Z,14.20
2018-06-16T06:00:49.314Z,13.97
2018-06-16T06:03:17.102Z,14.33
2018-06-16T06:05:45.347Z,14.47
2018-06-16T06:08:13.123Z,14.90
2018-06-16T06:10:40.918Z,15.43
2018-06-16T06:13:08.990Z,15.53
2018-06-16T06:15:37.058Z,15.85
2018-06-16T06:18:05.146Z,16.97
2018-06-16T06:20:33.225Z,16.05
2018-06-16T06:23:01.364Z,16.00
2018-06-16T06:25:29.476Z,16.52
2018-06-16T06:27:57.816Z,16.20
2018-06-16T06:30:26.251Z,15.38
2018-06-16T06:32:54.260Z,15.58
2018-06-16T06:35:22.054Z,15.45
2018-06-16T06:37:50.354Z,15.50
2018-06-16T06:40:18.407Z,14.90
2018-06-16T06:42:46.583Z,14.27
2018-06-16T06:45:14.649Z,12.30
2018-06-16T06:47:42.731Z,13.83
2018-06-16T06:50:10.908Z,15.07
2018-06-16T06:52:39.007Z,14.85
2018-06-16T06:55:06.927Z,13.68
2018-06-16T06:57:34.814Z,14.10
2018-06-16T07:00:03.030Z,14.20
2018-06-16T07:02:31.175Z,14.70
2018-06-16T07:04:59.141Z,14.07
2018-06-16T07:07:26.994Z,15.00
2018-06-16T07:09:55.090Z,14.60
2018-06-16T07:12:23.144Z,15.70
2018-06-16T07:14:51.251Z,14.68
2018-06-16T07:17:19.289Z,13.70
2018-06-16T07:19:47.385Z,14.20
2018-06-16T07:22:15.440Z,14.75
2018-06-16T07:24:43.498Z,15.43
2018-06-16T07:27:11.426Z,14.77
2018-06-16T07:29:39.461Z,14.90
2018-06-16T07:32:07.502Z,16.00
2018-06-16T07:34:35.311Z,14.40
2018-06-16T07:37:03.395Z,16.27
2018-06-16T07:39:31.531Z,14.47
2018-06-16T07:41:59.720Z,13.05
2018-06-16T07:44:28.012Z,13.80
2018-06-16T07:46:56.178Z,13.20
2018-06-16T07:49:24.420Z,12.47
2018-06-16T07:51:52.600Z,13.45
2018-06-16T07:54:20.402Z,12.95
2018-06-16T07:56:48.586Z,12.47
2018-06-16T07:59:16.664Z,11.63
2018-06-16T08:01:44.807Z,11.50
2018-06-16T08:04:12.916Z,10.13
2018-06-16T08:06:40.955Z,10.10
2018-06-16T08:09:10.020Z,10.80
2018-06-16T08:11:38.115Z,8.50
2018-06-16T08:37:36.927Z,9.93
2018-06-16T08:40:05.187Z,8.80
2018-06-16T08:42:33.236Z,9.57
2018-06-16T08:45:01.335Z,9.68
2018-06-16T08:47:29.399Z,9.25
2018-06-16T08:49:57.476Z,9.80
2018-06-16T08:52:25.532Z,9.75
2018-06-16T08:54:54.163Z,8.38
2018-06-16T08:57:22.237Z,9.20
2018-06-16T08:59:50.348Z,8.83
2018-06-16T09:02:18.142Z,9.37
2018-06-16T09:04:46.321Z,9.50
2018-06-16T09:39:10.868Z,6.03
2018-06-16T09:41:39.144Z,5.92
2018-06-16T09:44:07.588Z,6.80
2018-06-16T09:46:35.579Z,6.17
2018-06-16T09:49:03.658Z,5.50
2018-06-16T09:51:31.876Z,5.37
2018-06-16T09:53:59.903Z,6.50
2018-06-16T09:56:27.949Z,6.00
2018-06-16T09:58:56.056Z,7.83
2018-06-16T10:01:24.300Z,6.23
2018-06-16T10:03:52.095Z,6.90
2018-06-16T10:06:20.209Z,6.23
2018-06-16T10:08:48.240Z,7.00
2018-06-16T10:11:16.308Z,6.00
2018-06-16T10:13:44.368Z,5.77
2018-06-16T10:16:12.532Z,6.27
2018-06-16T10:18:40.303Z,4.80
2018-06-16T10:21:08.091Z,4.67
2018-06-16T10:23:36.144Z,4.90
2018-06-16T10:26:03.928Z,5.20
2018-06-16T10:28:32.013Z,5.37
2018-06-16T10:31:00.187Z,5.00
2018-06-16T10:33:28.375Z,5.40
2018-06-16T10:35:56.404Z,6.03
2018-06-16T10:38:24.194Z,5.60
2018-06-16T10:40:52.247Z,5.60
2018-06-16T10:43:20.143Z,4.70
2018-06-16T10:45:48.288Z,6.30
2018-06-16T10:48:16.102Z,6.53
2018-06-16T10:50:44.145Z,6.33
2018-06-16T10:53:12.296Z,6.47
2018-06-16T10:55:40.104Z,6.87
2018-06-16T10:58:08.139Z,6.87
2018-06-16T11:00:36.147Z,6.63
2018-06-16T11:03:04.207Z,6.77
2018-06-16T11:05:32.278Z,6.47
2018-06-16T11:08:00.360Z,6.57
2018-06-16T11:10:28.448Z,7.07
2018-06-16T11:12:56.512Z,7.03
2018-06-16T11:15:24.573Z,6.20
2018-06-16T11:17:52.875Z,6.47
2018-06-16T11:20:21.110Z,7.10
2018-06-16T11:22:48.894Z,6.80
2018-06-16T11:25:16.965Z,6.70
2018-06-16T11:27:45.076Z,5.43
2018-06-16T11:30:13.094Z,5.50
2018-06-16T11:32:41.195Z,5.13
2018-06-16T11:35:09.377Z,5.93
2018-06-16T11:37:37.548Z,5.83
2018-06-16T11:40:05.714Z,6.57
2018-06-16T11:42:33.759Z,5.53
2018-06-16T11:45:01.549Z,5.70
2018-06-16T11:47:29.799Z,5.80
2018-06-16T11:49:58.107Z,5.73
2018-06-16T11:52:26.167Z,5.57
2018-06-16T11:54:54.055Z,5.90
2018-06-16T11:57:22.104Z,5.40
2018-06-16T11:59:49.891Z,5.27
2018-06-16T12:02:18.067Z,4.93
2018-06-16T12:04:46.234Z,5.00
2018-06-16T12:07:14.320Z,5.10
2018-06-16T12:09:42.488Z,5.63
2018-06-16T12:12:10.599Z,5.50
2018-06-16T12:14:38.745Z,5.43
2018-06-16T12:17:06.824Z,4.70
2018-06-16T12:19:34.870Z,5.07
2018-06-16T12:22:03.070Z,6.07
2018-06-16T12:24:31.243Z,6.80
2018-06-16T12:26:59.411Z,5.20
2018-06-16T12:29:27.452Z,4.40
2018-06-16T12:31:55.547Z,4.60
2018-06-16T12:34:23.745Z,4.63
2018-06-16T12:36:51.798Z,4.83
2018-06-16T12:39:19.992Z,5.10
2018-06-16T12:41:48.244Z,5.13
2018-06-16T12:44:16.033Z,4.43
2018-06-16T12:46:44.107Z,4.30
2018-06-16T12:49:12.208Z,4.50
2018-06-16T12:51:40.235Z,5.00
2018-06-16T12:54:08.293Z,4.63
2018-06-16T12:56:36.205Z,5.03
2018-06-16T12:59:04.360Z,5.33
2018-06-16T13:01:32.447Z,4.70
2018-06-16T13:04:00.496Z,4.90
2018-06-16T13:06:28.617Z,5.20
2018-06-16T13:08:56.763Z,4.80
2018-06-16T13:11:24.932Z,4.53
2018-06-16T13:13:53.134Z,5.30
2018-06-16T13:16:21.215Z,5.17
2018-06-16T13:18:49.476Z,5.20
2018-06-16T13:21:17.532Z,4.97
2018-06-16T13:23:45.597Z,4.93
2018-06-16T13:26:13.671Z,4.47
2018-06-16T13:28:41.865Z,4.60
2018-06-16T13:31:10.031Z,4.67
2018-06-16T13:33:38.128Z,4.20
2018-06-16T13:36:06.246Z,5.97
2018-06-16T13:38:34.261Z,4.37
2018-06-16T13:41:02.323Z,4.67
2018-06-16T13:43:30.518Z,4.50
2018-06-16T13:45:58.708Z,5.27
2018-06-16T13:48:26.832Z,4.13
2018-06-16T13:50:54.687Z,4.17
2018-06-16T13:53:22.776Z,4.60
2018-06-16T13:55:50.603Z,5.20
2018-06-16T13:58:18.661Z,4.20
2018-06-16T14:00:46.826Z,4.40
2018-06-16T14:03:14.907Z,4.73
2018-06-16T14:05:42.931Z,4.63
2018-06-16T14:08:10.717Z,8.00
2018-06-16T14:10:38.889Z,7.20
2018-06-16T14:13:07.293Z,4.90
2018-06-16T14:15:35.346Z,4.83
2018-06-16T14:18:03.536Z,5.23
2018-06-16T14:20:31.612Z,5.10
2018-06-16T14:22:59.665Z,4.93
2018-06-16T14:25:27.753Z,5.30
2018-06-16T14:27:55.798Z,29.10
2018-06-16T14:30:23.899Z,12.00
2018-06-16T14:32:51.939Z,5.00
2018-06-16T14:35:20.151Z,5.57
2018-06-16T14:37:48.332Z,4.90
2018-06-16T14:40:16.392Z,4.50
2018-06-16T14:42:44.474Z,4.63
2018-06-16T14:45:12.522Z,4.73
2018-06-16T14:47:40.438Z,4.97
2018-06-16T14:50:08.663Z,4.53
2018-06-16T14:52:36.451Z,5.17
2018-06-16T14:55:04.707Z,4.70
2018-06-16T14:57:32.490Z,5.00
2018-06-16T15:00:00.664Z,4.83
2018-06-16T15:02:28.844Z,5.73
2018-06-16T15:04:57.102Z,4.90
2018-06-16T15:07:25.114Z,4.70
2018-06-16T15:09:53.720Z,4.80
2018-06-16T15:12:21.807Z,5.20
2018-06-16T15:14:49.836Z,4.60
2018-06-16T15:17:17.990Z,5.30
2018-06-16T15:19:45.878Z,5.17
2018-06-16T15:22:13.948Z,5.10
2018-06-16T15:24:42.019Z,5.20
2018-06-16T15:27:10.067Z,5.33
2018-06-16T15:29:37.858Z,4.83
2018-06-16T15:32:05.889Z,4.90
2018-06-16T15:34:33.930Z,4.20
2018-06-16T15:37:01.970Z,4.80
2018-06-16T15:39:30.161Z,5.53
2018-06-16T15:41:58.234Z,4.63
2018-06-16T15:44:26.375Z,4.97
2018-06-16T15:46:54.183Z,5.43
2018-06-16T15:49:22.212Z,4.87
2018-06-16T15:51:50.001Z,5.60
2018-06-16T15:54:18.087Z,6.00
2018-06-16T15:56:46.259Z,5.27
2018-06-16T15:59:14.332Z,5.30
2018-06-16T16:01:42.472Z,5.10
2018-06-16T16:04:10.270Z,4.60
2018-06-16T16:06:38.315Z,5.70
2018-06-16T16:09:06.530Z,5.00
2018-06-16T16:11:34.874Z,4.90
2018-06-16T16:14:02.867Z,5.20
2018-06-16T16:16:30.920Z,5.70
2018-06-16T16:18:59.165Z,5.03
2018-06-16T16:21:27.292Z,5.30
2018-06-16T16:23:55.371Z,5.57
2018-06-16T16:26:23.545Z,4.83
2018-06-16T16:28:52.155Z,4.80
2018-06-16T16:31:20.196Z,5.00
2018-06-16T16:33:48.264Z,5.60
2018-06-16T16:36:16.343Z,4.77
2018-06-16T16:38:44.401Z,4.70
2018-06-16T16:41:12.488Z,5.57
2018-06-16T16:43:40.539Z,5.13
2018-06-16T16:46:08.332Z,5.57
2018-06-16T16:48:36.518Z,5.97
2018-06-16T16:51:04.549Z,5.60
2018-06-16T16:53:32.362Z,5.90
2018-06-16T16:56:00.396Z,5.10
2018-06-16T16:58:28.179Z,5.20
2018-06-16T17:00:56.251Z,5.40
2018-06-16T17:03:24.326Z,5.37
2018-06-16T17:05:52.508Z,5.63
2018-06-16T17:08:20.603Z,4.67
2018-06-16T17:10:48.656Z,5.43
2018-06-16T17:13:16.723Z,6.23
2018-06-16T17:15:44.902Z,5.40
2018-06-16T17:18:13.055Z,4.93
2018-06-16T17:20:40.847Z,5.57
2018-06-16T17:23:08.896Z,6.20
2018-06-16T17:25:36.682Z,5.70
2018-06-16T17:28:05.052Z,4.47
2018-06-16T17:30:33.157Z,5.00
2018-06-16T17:33:01.167Z,5.10
2018-06-16T17:35:29.284Z,4.60
2018-06-16T17:37:57.450Z,5.60
2018-06-16T17:40:25.540Z,4.90
2018-06-16T17:42:53.380Z,5.07
2018-06-16T17:45:21.374Z,5.07
2018-06-16T17:47:49.514Z,5.07
2018-06-16T17:50:17.585Z,5.67
2018-06-16T17:52:45.382Z,5.00
2018-06-16T17:55:13.435Z,5.43
2018-06-16T17:57:41.330Z,5.03
2018-06-16T18:00:09.480Z,5.00
2018-06-16T18:02:37.475Z,5.67
2018-06-16T18:05:05.534Z,6.03
2018-06-16T18:07:33.724Z,6.80
2018-06-16T18:10:02.026Z,6.80
2018-06-16T18:12:30.053Z,5.87
2018-06-16T18:14:57.841Z,5.30
2018-06-16T18:17:25.888Z,5.67
2018-06-16T18:19:53.988Z,4.73
2018-06-16T18:22:22.050Z,6.13
2018-06-16T18:24:50.239Z,6.07
2018-06-16T18:27:18.309Z,5.80
2018-06-16T18:29:48.979Z,6.63
2018-06-16T18:32:17.019Z,6.27
2018-06-16T18:34:45.275Z,6.67
2018-06-16T18:37:13.172Z,5.80
2018-06-16T18:42:09.005Z,6.20
2018-06-16T18:44:37.359Z,5.70
2018-06-16T18:47:05.246Z,4.97
2018-06-16T18:52:00.700Z,5.43
2018-06-16T18:54:28.743Z,6.00
2018-06-16T18:56:56.935Z,6.55
2018-06-16T18:59:25.212Z,6.92
2018-06-16T19:01:53.476Z,7.60
2018-06-16T19:06:49.001Z,7.77
2018-06-16T19:11:44.476Z,7.80
2018-06-16T20:37:38.715Z,13.55
2018-06-16T20:40:06.715Z,13.70
2018-06-16T20:42:34.804Z,13.98
2018-06-16T20:45:02.968Z,14.70
2018-06-16T20:47:31.151Z,13.35
2018-06-16T20:49:59.321Z,12.00
2018-06-16T20:52:27.439Z,11.55
2018-06-16T20:54:55.450Z,10.75
2018-06-16T20:57:23.512Z,11.18
2018-06-16T20:59:51.357Z,10.60
2018-06-16T21:02:19.486Z,10.98
2018-06-16T21:04:47.556Z,10.75
2018-06-16T21:07:15.652Z,11.60
2018-06-16T21:09:43.706Z,11.85
2018-06-16T21:12:11.786Z,11.68
2018-06-16T21:14:39.838Z,11.35
2018-06-16T21:17:07.920Z,11.18
2018-06-16T21:19:36.071Z,11.40
2018-06-16T21:22:03.990Z,11.00
2018-06-16T21:24:31.995Z,12.18
2018-06-16T21:27:00.119Z,14.00
2018-06-16T21:29:28.197Z,13.72
2018-06-16T21:31:56.227Z,13.70
2018-06-16T21:34:24.341Z,12.88
2018-06-16T21:36:52.387Z,12.58
2018-06-16T21:39:20.471Z,10.98
2018-06-16T21:41:48.647Z,11.20
2018-06-16T21:44:16.736Z,12.07
2018-06-16T21:46:44.912Z,12.33
2018-06-16T21:49:13.093Z,12.20
2018-06-16T21:51:41.147Z,11.93
2018-06-16T21:54:09.304Z,12.23
2018-06-16T21:56:37.505Z,12.43
2018-06-16T21:59:05.547Z,11.78
2018-06-16T22:01:37.092Z,13.15
2018-06-16T22:04:05.618Z,12.80
2018-06-16T22:06:34.115Z,12.93
2018-06-16T22:09:02.325Z,12.70
2018-06-16T22:11:30.339Z,13.43
2018-06-16T22:13:58.402Z,13.58
2018-06-16T22:16:26.461Z,14.87
2018-06-16T22:18:54.275Z,14.90
2018-06-16T22:21:22.521Z,14.63
2018-06-16T22:23:50.630Z,15.00
2018-06-16T22:26:18.665Z,13.10
2018-06-16T22:28:46.841Z,12.90
2018-06-16T22:31:15.032Z,13.13
2018-06-16T22:33:43.103Z,12.80
2018-06-16T22:36:11.275Z,12.90
2018-06-16T22:38:39.432Z,14.20
2018-06-16T22:41:07.318Z,14.28
2018-06-16T22:43:35.387Z,15.08
2018-06-16T22:46:03.479Z,13.60
2018-06-16T22:48:31.516Z,13.32
2018-06-16T22:50:59.326Z,13.60
2018-06-16T22:53:27.567Z,15.05
2018-06-16T22:55:55.697Z,15.00
2018-06-16T22:58:23.728Z,15.40
2018-06-16T23:00:52.106Z,14.87
2018-06-16T23:03:20.328Z,15.27
2018-06-16T23:05:48.347Z,14.60
2018-06-16T23:08:16.607Z,15.23
2018-06-16T23:10:44.414Z,17.85
2018-06-16T23:13:12.476Z,15.48
2018-06-16T23:15:40.561Z,16.77
2018-06-16T23:18:08.839Z,16.48
2018-06-16T23:20:36.922Z,16.67
2018-06-16T23:23:04.984Z,17.30
2018-06-16T23:25:33.027Z,16.90
2018-06-16T23:28:00.924Z,17.55
2018-06-16T23:30:28.980Z,17.12
2018-06-16T23:32:57.176Z,18.42
2018-06-16T23:35:25.253Z,17.87
2018-06-16T23:37:53.290Z,17.10
2018-06-16T23:40:21.083Z,16.70
2018-06-16T23:42:49.244Z,16.80
2018-06-16T23:45:17.387Z,17.62
2018-06-16T23:47:45.500Z,17.87
2018-06-16T23:50:13.582Z,21.65
2018-06-16T23:52:41.630Z,20.97
2018-06-16T23:55:09.940Z,21.62
2018-06-16T23:57:37.957Z,20.95
